Time;durP1;ratioP1;P1;durP2;ratioP2;P2;SDS_P1;SDS_P2;PMS_P1;PMS_P2;Temp;Humidity;BMP_temperature;BMP_pressure;BME280_temperature;BME280_humidity;BME280_pressure;Samples;Min_cycle;Max_cycle;Signal;HPM_P1;HPM_P2
2021/09/19 00:01:17;;;;;;;26.50;23.80;;;17.90;76.30;;;;;;5034373;28;20231;-81
2021/09/19 00:03:46;;;;;;;27.80;25.00;;;18.00;76.20;;;;;;5034694;28;20257;-80
2021/09/19 00:06:15;;;;;;;25.93;23.33;;;18.00;75.00;;;;;;5056885;28;20181;-82
2021/09/19 00:08:41;;;;;;;26.20;23.53;;;17.90;75.90;;;;;;5056748;28;20208;-81
2021/09/19 00:11:06;;;;;;;28.67;24.67;;;17.90;77.80;;;;;;5056669;28;20269;-82
2021/09/19 00:13:32;;;;;;;26.80;24.03;;;17.90;76.40;;;;;;5046649;28;20207;-81
2021/09/19 00:15:58;;;;;;;27.27;24.30;;;17.90;75.90;;;;;;5045706;28;20652;-80
2021/09/19 00:18:29;;;;;;;26.73;24.03;;;18.00;74.60;;;;;;5041152;28;20173;-82
2021/09/19 00:20:58;;;;;;;27.37;23.97;;;17.90;72.50;;;;;;5036934;28;20598;-80
2021/09/19 00:23:27;;;;;;;25.33;22.57;;;17.90;73.40;;;;;;5036662;28;20274;-82
2021/09/19 00:25:52;;;;;;;26.33;23.60;;;18.00;74.40;;;;;;5036340;28;20630;-81
2021/09/19 00:28:18;;;;;;;25.83;23.30;;;17.80;76.00;;;;;;5036537;28;20181;-82
2021/09/19 00:30:45;;;;;;;25.90;23.10;;;17.70;78.60;;;;;;5036080;28;20246;-81
2021/09/19 00:33:11;;;;;;;25.63;22.93;;;17.80;78.40;;;;;;5037256;28;20641;-82
2021/09/19 00:35:36;;;;;;;26.67;24.00;;;17.70;79.20;;;;;;5035922;28;20173;-82
2021/09/19 00:38:03;;;;;;;25.13;22.57;;;17.70;80.50;;;;;;5035480;28;20182;-82
2021/09/19 00:40:29;;;;;;;25.60;23.00;;;17.70;81.20;;;;;;5035456;28;20182;-82
2021/09/19 00:42:54;;;;;;;25.23;22.73;;;17.60;82.90;;;;;;5035105;28;20521;-82
2021/09/19 00:45:22;;;;;;;25.80;23.40;;;17.60;83.60;;;;;;5036515;28;20721;-82
2021/09/19 00:47:48;;;;;;;27.27;23.90;;;17.40;85.80;;;;;;5034781;28;20549;-81
2021/09/19 00:50:16;;;;;;;26.97;24.27;;;17.40;86.40;;;;;;5034807;28;20695;-82
2021/09/19 00:52:44;;;;;;;26.10;23.40;;;17.40;85.80;;;;;;5035818;28;20583;-81
2021/09/19 00:55:11;;;;;;;25.47;22.77;;;17.30;87.80;;;;;;5035632;28;20193;-82
2021/09/19 00:57:47;;;;;;;25.57;23.00;;;17.10;89.90;;;;;;5037031;28;20245;-82
2021/09/19 01:00:18;;;;;;;26.77;24.03;;;17.10;91.10;;;;;;5032474;28;20180;-80
2021/09/19 01:02:44;;;;;;;26.70;23.97;;;17.10;90.60;;;;;;5034904;28;20594;-80
2021/09/19 01:05:12;;;;;;;26.30;23.70;;;17.10;90.50;;;;;;5036168;28;20248;-81
2021/09/19 01:07:40;;;;;;;26.53;23.83;;;17.10;90.30;;;;;;5035008;28;20173;-81
2021/09/19 01:10:06;;;;;;;26.30;23.17;;;17.20;89.50;;;;;;5034812;28;20205;-82
2021/09/19 01:12:32;;;;;;;25.73;23.03;;;17.20;88.70;;;;;;5036094;28;20684;-82
2021/09/19 01:14:59;;;;;;;25.90;23.20;;;17.30;87.80;;;;;;5036323;28;20170;-80
2021/09/19 01:17:25;;;;;;;26.20;23.40;;;17.20;86.00;;;;;;5036308;28;20251;-81
2021/09/19 01:19:52;;;;;;;25.03;22.63;;;17.30;86.50;;;;;;5037387;28;20224;-81
2021/09/19 01:22:18;;;;;;;25.27;22.67;;;17.30;86.50;;;;;;5036299;28;20216;-82
2021/09/19 01:24:43;;;;;;;24.90;22.50;;;17.20;86.20;;;;;;5036328;28;20173;-82
2021/09/19 01:27:09;;;;;;;25.70;23.10;;;17.10;86.90;;;;;;5037493;28;20549;-82
2021/09/19 01:29:35;;;;;;;25.77;23.03;;;17.10;87.70;;;;;;5036590;28;20165;-83
2021/09/19 01:32:03;;;;;;;25.20;22.73;;;17.10;87.30;;;;;;5035557;28;20732;-82
2021/09/19 01:34:28;;;;;;;27.03;23.57;;;17.10;88.00;;;;;;5035155;28;20170;-82
2021/09/19 01:36:54;;;;;;;25.80;23.20;;;17.10;88.70;;;;;;5035321;28;20672;-82
2021/09/19 01:39:20;;;;;;;26.07;23.30;;;17.10;89.30;;;;;;5035504;28;20534;-83
2021/09/19 01:41:49;;;;;;;26.00;23.30;;;17.00;89.00;;;;;;5035362;28;20177;-82
2021/09/19 01:44:15;;;;;;;27.13;24.27;;;16.90;90.10;;;;;;5034413;28;20184;-82
2021/09/19 01:46:41;;;;;;;26.37;23.77;;;16.90;90.20;;;;;;5034227;28;20583;-82
2021/09/19 01:49:10;;;;;;;26.73;23.93;;;16.90;90.50;;;;;;5034026;28;20240;-82
2021/09/19 01:51:36;;;;;;;25.47;22.77;;;16.80;91.10;;;;;;5034011;28;20220;-82
2021/09/19 01:54:02;;;;;;;26.83;24.03;;;16.90;90.80;;;;;;5035443;28;20626;-82
2021/09/19 01:56:28;;;;;;;25.63;23.07;;;16.90;90.80;;;;;;5034339;28;20174;-81
2021/09/19 01:58:55;;;;;;;26.70;24.00;;;16.80;91.20;;;;;;5034379;28;20522;-82
2021/09/19 02:01:22;;;;;;;25.63;23.07;;;16.80;91.30;;;;;;5035299;28;20166;-83
2021/09/19 02:03:49;;;;;;;26.33;23.83;;;16.70;92.10;;;;;;5035066;28;20641;-83
2021/09/19 02:06:16;;;;;;;27.27;24.40;;;16.70;92.40;;;;;;5034327;28;20169;-82
2021/09/19 02:08:41;;;;;;;25.57;22.97;;;16.70;92.80;;;;;;5033036;28;20216;-81
2021/09/19 02:11:11;;;;;;;26.03;23.47;;;16.70;93.70;;;;;;5033847;28;20244;-82
2021/09/19 02:13:38;;;;;;;25.83;23.20;;;16.60;93.60;;;;;;5033975;28;20196;-84
2021/09/19 02:16:05;;;;;;;26.43;23.73;;;16.60;92.70;;;;;;5034860;28;20673;-82
2021/09/19 02:18:31;;;;;;;27.03;24.17;;;16.60;92.60;;;;;;5033439;28;20538;-81
2021/09/19 02:20:57;;;;;;;27.50;24.63;;;16.80;92.50;;;;;;5034734;28;20622;-84
2021/09/19 02:23:23;;;;;;;27.40;24.50;;;16.60;92.30;;;;;;5033637;28;20226;-81
2021/09/19 02:25:49;;;;;;;27.27;24.47;;;16.80;92.90;;;;;;5034424;28;20251;-83
2021/09/19 02:28:15;;;;;;;25.93;23.33;;;16.50;93.30;;;;;;5034115;28;20170;-84
2021/09/19 02:30:41;;;;;;;27.30;24.50;;;16.50;93.80;;;;;;5033078;28;20201;-83
2021/09/19 02:33:07;;;;;;;28.40;25.60;;;16.60;93.10;;;;;;5032600;28;20173;-84
2021/09/19 02:35:33;;;;;;;25.37;22.83;;;16.50;93.50;;;;;;5032851;28;20545;-83
2021/09/19 02:37:58;;;;;;;27.03;24.43;;;16.50;93.10;;;;;;5033560;28;20228;-83
2021/09/19 02:40:26;;;;;;;26.53;23.93;;;16.60;93.50;;;;;;5032798;28;20182;-84
2021/09/19 02:42:53;;;;;;;28.10;25.27;;;16.50;93.50;;;;;;5033150;28;20170;-82
2021/09/19 02:45:19;;;;;;;26.70;23.80;;;16.60;93.00;;;;;;5032880;28;20232;-82
2021/09/19 02:47:45;;;;;;;27.27;24.47;;;16.50;93.10;;;;;;5033418;28;20165;-83
2021/09/19 02:50:15;;;;;;;26.47;23.57;;;16.50;93.20;;;;;;5032426;28;20202;-83
2021/09/19 02:52:41;;;;;;;27.50;24.73;;;16.50;93.30;;;;;;5032708;28;20180;-80
2021/09/19 02:55:08;;;;;;;29.13;24.90;;;16.50;93.50;;;;;;5032329;28;20166;-80
2021/09/19 02:57:34;;;;;;;28.13;25.13;;;16.40;94.00;;;;;;5032904;28;20268;-81
2021/09/19 02:59:59;;;;;;;27.33;24.67;;;16.50;93.80;;;;;;5033897;28;20201;-81
2021/09/19 03:02:25;;;;;;;28.60;25.70;;;16.50;93.80;;;;;;5032191;28;20641;-81
2021/09/19 03:04:51;;;;;;;27.53;24.63;;;16.50;93.90;;;;;;5032627;28;20559;-81
2021/09/19 03:07:16;;;;;;;28.10;25.20;;;16.60;93.70;;;;;;5032214;28;20250;-81
2021/09/19 03:09:42;;;;;;;26.93;24.27;;;16.50;93.50;;;;;;5034808;28;20177;-81
2021/09/19 03:12:08;;;;;;;27.40;24.67;;;16.50;93.90;;;;;;5033341;28;20580;-80
2021/09/19 03:14:33;;;;;;;27.73;25.00;;;16.50;94.00;;;;;;5034904;28;20169;-80
2021/09/19 03:16:59;;;;;;;26.73;23.90;;;16.50;93.70;;;;;;5034392;28;20182;-83
2021/09/19 03:19:24;;;;;;;28.10;25.30;;;16.50;93.50;;;;;;5035210;28;20166;-82
2021/09/19 03:21:50;;;;;;;29.73;26.63;;;16.50;93.60;;;;;;5035344;28;20216;-81
2021/09/19 03:24:16;;;;;;;28.43;25.33;;;16.50;93.60;;;;;;5035284;28;20170;-81
2021/09/19 03:26:42;;;;;;;28.60;25.67;;;16.50;93.30;;;;;;5035137;28;20173;-82
2021/09/19 03:29:07;;;;;;;29.20;26.23;;;16.50;93.50;;;;;;5037049;28;20204;-81
2021/09/19 03:31:33;;;;;;;28.07;25.00;;;16.50;93.50;;;;;;5042532;28;20268;-82
2021/09/19 03:33:59;;;;;;;29.60;26.60;;;16.50;93.50;;;;;;5045859;28;20173;-81
2021/09/19 03:36:25;;;;;;;28.07;25.40;;;16.30;93.90;;;;;;5044633;28;20684;-81
2021/09/19 03:38:51;;;;;;;28.77;25.67;;;16.30;94.40;;;;;;5034836;28;20182;-82
2021/09/19 03:41:16;;;;;;;28.03;25.00;;;16.20;94.50;;;;;;5037084;28;20235;-82
2021/09/19 03:43:42;;;;;;;28.63;25.60;;;16.10;95.50;;;;;;5034412;28;20184;-83
2021/09/19 03:46:09;;;;;;;29.53;26.43;;;16.20;95.30;;;;;;5034270;28;20188;-83
2021/09/19 03:48:36;;;;;;;29.27;26.37;;;16.30;95.10;;;;;;5036132;28;20216;-83
2021/09/19 03:51:02;;;;;;;28.43;25.33;;;16.30;95.00;;;;;;5047471;28;20205;-83
2021/09/19 03:53:28;;;;;;;29.27;26.17;;;16.30;95.00;;;;;;5042889;28;20542;-81
2021/09/19 03:55:53;;;;;;;26.77;23.97;;;16.20;95.30;;;;;;5042416;28;20174;-81
2021/09/19 03:58:19;;;;;;;27.80;25.00;;;16.20;95.50;;;;;;5040665;28;20607;-82
2021/09/19 04:00:45;;;;;;;26.50;23.70;;;16.00;96.40;;;;;;5043084;28;20219;-81
2021/09/19 04:03:11;;;;;;;28.13;25.23;;;15.90;96.80;;;;;;5039683;28;20215;-81
2021/09/19 04:05:37;;;;;;;28.63;25.63;;;15.90;97.40;;;;;;5036897;28;20178;-82
2021/09/19 04:08:04;;;;;;;27.90;25.00;;;15.90;97.50;;;;;;5039735;28;20181;-82
2021/09/19 04:10:30;;;;;;;28.90;26.00;;;15.80;98.10;;;;;;5038561;28;20200;-82
2021/09/19 04:13:01;;;;;;;28.73;25.70;;;15.90;98.80;;;;;;5044438;28;20185;-82
2021/09/19 04:15:27;;;;;;;29.93;26.87;;;15.70;98.90;;;;;;5042184;28;20178;-82
2021/09/19 04:17:53;;;;;;;27.97;25.00;;;15.70;98.90;;;;;;5038217;28;20181;-81
2021/09/19 04:20:19;;;;;;;29.20;26.23;;;15.80;99.10;;;;;;5038500;28;20174;-81
2021/09/19 04:22:45;;;;;;;28.60;25.43;;;15.80;98.60;;;;;;5052000;28;20173;-80
2021/09/19 04:25:12;;;;;;;27.53;24.33;;;15.90;98.40;;;;;;5060960;28;20161;-81
2021/09/19 04:27:38;;;;;;;27.83;24.93;;;15.80;98.40;;;;;;5061090;28;20158;-80
2021/09/19 04:30:12;;;;;;;30.13;25.43;;;15.70;98.70;;;;;;5053798;28;20181;-82
2021/09/19 04:32:38;;;;;;;27.47;24.23;;;15.80;98.20;;;;;;5052623;28;20561;-82
2021/09/19 04:35:07;;;;;;;28.33;25.43;;;15.70;98.00;;;;;;5048278;28;20205;-82
2021/09/19 04:37:36;;;;;;;27.13;24.10;;;15.60;98.50;;;;;;5039544;28;20252;-80
2021/09/19 04:40:06;;;;;;;28.57;25.67;;;15.60;98.50;;;;;;5041289;28;20191;-82
2021/09/19 04:42:34;;;;;;;28.33;25.37;;;15.60;98.70;;;;;;5041763;28;20229;-81
2021/09/19 04:45:02;;;;;;;27.33;24.40;;;15.50;99.00;;;;;;5038875;28;20249;-81
2021/09/19 04:47:28;;;;;;;27.83;24.93;;;15.50;99.50;;;;;;5039687;28;20181;-83
2021/09/19 04:49:54;;;;;;;29.13;26.03;;;15.60;99.70;;;;;;5040133;28;20191;-81
2021/09/19 04:52:20;;;;;;;27.80;25.00;;;15.40;99.70;;;;;;5023231;28;20191;-81
2021/09/19 04:54:45;;;;;;;27.63;24.77;;;15.60;99.90;;;;;;5037554;28;20227;-82
2021/09/19 04:57:11;;;;;;;26.53;23.60;;;15.40;99.90;;;;;;5056081;28;20148;-81
2021/09/19 04:59:38;;;;;;;28.40;25.37;;;15.40;99.90;;;;;;5060308;28;20160;-82
2021/09/19 05:02:04;;;;;;;29.13;26.03;;;15.30;99.90;;;;;;5060853;28;20327;-81
2021/09/19 05:04:30;;;;;;;29.50;25.43;;;15.30;99.90;;;;;;5057841;28;20178;-82
2021/09/19 05:06:55;;;;;;;27.97;25.27;;;15.20;99.90;;;;;;5054969;28;20173;-81
2021/09/19 05:09:21;;;;;;;29.80;26.83;;;15.30;99.90;;;;;;5052247;28;20188;-83
2021/09/19 05:11:48;;;;;;;29.10;26.03;;;15.20;99.90;;;;;;5035063;28;20653;-81
2021/09/19 05:14:37;;;;;;;27.83;25.03;;;15.20;99.90;;;;;;5035184;28;20166;-82
2021/09/19 05:17:05;;;;;;;29.57;26.37;;;15.20;99.90;;;;;;5034627;28;20215;-82
2021/09/19 05:19:31;;;;;;;27.73;24.83;;;15.20;99.90;;;;;;5035024;28;20195;-82
2021/09/19 05:21:56;;;;;;;28.07;25.07;;;15.10;99.90;;;;;;5035561;28;20593;-82
2021/09/19 05:24:22;;;;;;;28.53;25.47;;;15.00;99.90;;;;;;5034179;28;20230;-82
2021/09/19 05:26:48;;;;;;;27.83;24.93;;;15.00;99.90;;;;;;5034194;28;20270;-84
2021/09/19 05:29:13;;;;;;;30.07;26.97;;;15.00;99.90;;;;;;5035671;28;20202;-82
2021/09/19 05:31:42;;;;;;;28.00;25.00;;;14.90;99.90;;;;;;5034551;28;20214;-82
2021/09/19 05:34:08;;;;;;;28.73;25.63;;;14.80;99.90;;;;;;5035374;28;20254;-83
2021/09/19 05:36:34;;;;;;;28.20;25.23;;;14.80;99.90;;;;;;5034398;28;20211;-83
2021/09/19 05:38:59;;;;;;;29.07;24.90;;;14.70;99.90;;;;;;5034271;28;20183;-82
2021/09/19 05:41:25;;;;;;;28.63;25.53;;;15.00;99.90;;;;;;5034286;28;20288;-83
2021/09/19 05:43:51;;;;;;;27.73;24.83;;;14.80;99.90;;;;;;5033601;28;20175;-80
2021/09/19 05:46:17;;;;;;;28.67;25.60;;;14.70;99.90;;;;;;5033204;28;20169;-82
2021/09/19 05:48:43;;;;;;;27.73;24.77;;;14.60;99.90;;;;;;5033936;28;20637;-82
2021/09/19 05:51:10;;;;;;;28.33;25.43;;;14.70;99.90;;;;;;5033483;28;20234;-82
2021/09/19 05:53:36;;;;;;;27.73;24.67;;;14.60;99.90;;;;;;5033606;28;20178;-82
2021/09/19 05:56:02;;;;;;;28.63;25.63;;;14.70;99.90;;;;;;5035672;28;20189;-83
2021/09/19 05:58:28;;;;;;;27.87;24.90;;;14.70;99.90;;;;;;5040861;28;20174;-81
2021/09/19 06:00:53;;;;;;;28.87;25.83;;;14.60;99.90;;;;;;5050479;28;20655;-81
2021/09/19 06:03:19;;;;;;;28.03;25.03;;;14.70;99.90;;;;;;5045019;28;20646;-81
2021/09/19 06:05:45;;;;;;;28.23;25.30;;;14.50;99.90;;;;;;5044980;28;20227;-81
2021/09/19 06:08:10;;;;;;;31.20;25.87;;;14.50;99.90;;;;;;5035836;28;20541;-82
2021/09/19 06:10:36;;;;;;;29.37;26.13;;;14.70;99.90;;;;;;5035222;28;20213;-82
2021/09/19 06:13:03;;;;;;;31.83;26.27;;;14.50;99.90;;;;;;5034053;28;20614;-82
2021/09/19 06:15:30;;;;;;;28.47;25.00;;;14.50;99.90;;;;;;5033770;28;20180;-83
2021/09/19 06:17:55;;;;;;;29.23;26.10;;;14.40;99.90;;;;;;5033163;28;20187;-83
2021/09/19 06:20:21;;;;;;;28.93;25.90;;;14.40;99.90;;;;;;5034384;28;20172;-82
2021/09/19 06:22:47;;;;;;;29.97;26.50;;;14.40;99.90;;;;;;5033937;28;20178;-82
2021/09/19 06:25:13;;;;;;;28.63;25.73;;;14.30;99.90;;;;;;5034289;28;20534;-83
2021/09/19 06:27:39;;;;;;;29.57;26.47;;;14.40;99.90;;;;;;5033634;28;20178;-83
2021/09/19 06:30:06;;;;;;;30.67;27.40;;;14.40;99.90;;;;;;5034248;28;20179;-83
2021/09/19 06:32:32;;;;;;;28.37;25.57;;;14.50;99.90;;;;;;5034416;28;20217;-83
2021/09/19 06:34:58;;;;;;;29.07;25.97;;;14.50;99.90;;;;;;5034024;28;20179;-82
2021/09/19 06:37:24;;;;;;;29.97;26.77;;;14.60;99.90;;;;;;5034680;28;20609;-83
2021/09/19 06:39:49;;;;;;;29.13;26.03;;;14.60;99.90;;;;;;5034551;28;20174;-82
2021/09/19 06:42:15;;;;;;;30.73;26.57;;;14.70;99.90;;;;;;5035793;28;20192;-83
2021/09/19 06:44:43;;;;;;;29.00;25.97;;;14.70;99.90;;;;;;5034321;28;20601;-82
2021/09/19 06:47:09;;;;;;;29.70;26.60;;;14.60;99.90;;;;;;5034965;28;20246;-83
2021/09/19 06:49:35;;;;;;;29.10;26.00;;;14.80;99.90;;;;;;5035274;28;20284;-83
2021/09/19 06:52:00;;;;;;;28.97;25.87;;;14.70;99.90;;;;;;5033824;28;20811;-81
2021/09/19 06:54:26;;;;;;;28.93;25.93;;;14.70;99.90;;;;;;5035008;28;20172;-83
2021/09/19 06:56:56;;;;;;;28.67;25.57;;;14.80;99.90;;;;;;5035632;28;20164;-82
2021/09/19 06:59:22;;;;;;;30.33;27.07;;;15.00;99.90;;;;;;5035172;28;20219;-81
2021/09/19 07:01:48;;;;;;;30.57;26.40;;;15.00;99.90;;;;;;5034288;28;20169;-84
2021/09/19 07:04:13;;;;;;;30.17;26.97;;;15.00;99.90;;;;;;5035743;28;20212;-82
2021/09/19 07:06:39;;;;;;;30.47;27.17;;;15.00;99.90;;;;;;5034675;28;20161;-83
2021/09/19 07:09:05;;;;;;;29.90;26.80;;;15.10;99.90;;;;;;5032589;28;20182;-82
2021/09/19 07:11:32;;;;;;;28.43;25.43;;;15.40;99.90;;;;;;5037741;28;20205;-83
2021/09/19 07:13:58;;;;;;;27.93;24.97;;;15.30;99.90;;;;;;5035253;28;20168;-83
2021/09/19 07:16:24;;;;;;;29.43;26.17;;;15.40;99.90;;;;;;5035474;28;20552;-83
2021/09/19 07:18:50;;;;;;;29.30;26.27;;;15.50;99.90;;;;;;5036701;28;20261;-83
2021/09/19 07:21:16;;;;;;;30.00;25.63;;;15.40;99.90;;;;;;5027406;28;20177;-82
2021/09/19 07:23:42;;;;;;;28.60;25.63;;;15.60;99.90;;;;;;5046826;28;20252;-83
2021/09/19 07:26:08;;;;;;;29.47;26.37;;;15.70;99.90;;;;;;5038246;28;20228;-82
2021/09/19 07:28:33;;;;;;;28.50;25.50;;;15.70;99.90;;;;;;5038429;28;20173;-82
2021/09/19 07:31:05;;;;;;;29.07;26.10;;;15.70;99.90;;;;;;5042896;28;20201;-83
2021/09/19 07:33:32;;;;;;;28.37;25.43;;;15.70;99.90;;;;;;5040084;28;20177;-83
2021/09/19 07:35:58;;;;;;;26.57;23.97;;;15.80;99.90;;;;;;5039662;28;20169;-82
2021/09/19 07:38:24;;;;;;;27.27;24.47;;;15.80;99.90;;;;;;5040204;28;20192;-83
2021/09/19 07:40:51;;;;;;;27.43;24.57;;;15.90;99.90;;;;;;5037424;28;20177;-81
2021/09/19 07:43:17;;;;;;;26.63;23.77;;;15.90;99.90;;;;;;5035728;28;20176;-84
2021/09/19 07:45:43;;;;;;;26.07;23.43;;;15.80;99.90;;;;;;5033252;28;20188;-84
2021/09/19 07:48:11;;;;;;;28.70;25.77;;;15.80;99.90;;;;;;5032862;28;20545;-84
2021/09/19 07:50:40;;;;;;;26.67;23.97;;;15.70;99.90;;;;;;5034864;28;20213;-81
2021/09/19 07:53:06;;;;;;;27.23;24.43;;;15.90;99.90;;;;;;5033357;28;20178;-86
2021/09/19 07:55:34;;;;;;;26.80;24.00;;;15.90;99.90;;;;;;5033828;28;20181;-83
2021/09/19 07:58:01;;;;;;;27.70;24.57;;;16.10;99.90;;;;;;5033092;28;20170;-84
2021/09/19 08:00:27;;;;;;;26.80;24.27;;;16.00;99.90;;;;;;5033195;28;20166;-84
2021/09/19 08:02:56;;;;;;;29.83;26.30;;;16.00;99.90;;;;;;5035288;28;20645;-84
2021/09/19 08:05:23;;;;;;;26.13;23.37;;;16.10;99.90;;;;;;5038464;28;20150;-84
2021/09/19 08:07:50;;;;;;;28.40;25.40;;;16.10;99.90;;;;;;5038840;28;20177;-83
2021/09/19 08:10:16;;;;;;;25.73;22.63;;;16.40;99.90;;;;;;5034635;28;20170;-84
2021/09/19 08:12:46;;;;;;;27.23;24.00;;;16.20;99.90;;;;;;5033754;28;20181;-84
2021/09/19 08:15:15;;;;;;;25.80;23.10;;;16.20;99.90;;;;;;5033222;28;20537;-83
2021/09/19 08:17:41;;;;;;;26.70;23.80;;;16.30;99.90;;;;;;5034402;28;20189;-84
2021/09/19 08:20:08;;;;;;;28.90;25.90;;;16.50;99.90;;;;;;5034684;28;20201;-84
2021/09/19 08:22:34;;;;;;;26.43;23.70;;;16.60;99.40;;;;;;5036457;28;20212;-84
2021/09/19 08:25:04;;;;;;;26.83;24.03;;;16.80;98.40;;;;;;5034747;28;20174;-85
2021/09/19 08:27:30;;;;;;;25.97;23.10;;;17.10;97.50;;;;;;5034784;28;20239;-82
2021/09/19 08:29:56;;;;;;;29.03;26.00;;;17.20;96.70;;;;;;5033766;28;20228;-81
2021/09/19 08:32:23;;;;;;;25.90;22.97;;;17.40;95.90;;;;;;5037890;28;20310;-83
2021/09/19 08:34:49;;;;;;;23.33;20.93;;;17.50;95.10;;;;;;5038983;28;20633;-85
2021/09/19 08:37:15;;;;;;;24.40;21.90;;;17.60;93.50;;;;;;5042204;28;20256;-83
2021/09/19 08:39:41;;;;;;;22.23;20.03;;;17.70;92.90;;;;;;5036353;28;20566;-83
2021/09/19 08:42:07;;;;;;;21.87;19.77;;;17.80;92.50;;;;;;5037817;28;20216;-83
2021/09/19 08:44:34;;;;;;;23.60;21.10;;;17.90;91.60;;;;;;5042231;28;20223;-83
2021/09/19 08:47:00;;;;;;;20.93;18.67;;;17.90;91.40;;;;;;5038395;28;20178;-83
2021/09/19 08:49:26;;;;;;;19.50;17.50;;;18.20;91.60;;;;;;5036494;28;20221;-82
2021/09/19 08:51:51;;;;;;;17.70;15.83;;;18.10;89.30;;;;;;5035617;28;20206;-82
2021/09/19 08:54:18;;;;;;;17.17;15.37;;;18.20;87.10;;;;;;5037493;28;20209;-84
2021/09/19 08:56:46;;;;;;;18.93;16.93;;;18.40;86.10;;;;;;5038081;28;20184;-85
2021/09/19 08:59:12;;;;;;;18.10;16.20;;;18.50;86.00;;;;;;5039612;28;20186;-82
2021/09/19 09:02:01;;;;;;;15.90;14.40;;;18.50;82.80;;;;;;5038981;28;20178;-84
2021/09/19 09:04:27;;;;;;;18.03;16.20;;;18.50;80.80;;;;;;5037171;28;20188;-83
2021/09/19 09:06:54;;;;;;;17.13;15.33;;;18.60;81.40;;;;;;5039411;28;20261;-84
2021/09/19 09:09:20;;;;;;;17.07;15.37;;;18.50;82.30;;;;;;5039991;28;20169;-82
2021/09/19 09:12:06;;;;;;;17.30;15.43;;;18.50;83.70;;;;;;5054597;28;20201;-82
2021/09/19 09:14:59;;;;;;;17.87;15.97;;;18.60;84.30;;;;;;5052510;28;20163;-81
2021/09/19 09:17:27;;;;;;;17.07;15.37;;;18.80;80.30;;;;;;5043928;28;20690;-83
2021/09/19 09:19:55;;;;;;;17.70;15.90;;;19.10;79.40;;;;;;5042201;28;20197;-81
2021/09/19 09:22:39;;;;;;;17.47;15.63;;;18.90;75.60;;;;;;5043583;28;20233;-83
2021/09/19 09:25:17;;;;;;;15.67;14.17;;;19.00;77.70;;;;;;5037996;28;20177;-85
2021/09/19 09:28:12;;;;;;;17.57;15.57;;;19.00;77.50;;;;;;5036500;28;20184;-84
2021/09/19 09:30:58;;;;;;;17.53;15.67;;;19.00;80.40;;;;;;5039087;28;20231;-85
2021/09/19 09:33:24;;;;;;;16.90;15.30;;;19.20;78.00;;;;;;5037976;28;20183;-85
2021/09/19 09:35:49;;;;;;;18.53;15.73;;;19.30;74.90;;;;;;5037981;28;20174;-84
2021/09/19 09:38:23;;;;;;;16.63;14.93;;;19.30;76.20;;;;;;5037663;28;20193;-84
2021/09/19 09:40:51;;;;;;;17.13;14.57;;;19.40;76.80;;;;;;5039909;28;20195;-84
2021/09/19 09:43:19;;;;;;;17.50;15.57;;;19.30;74.80;;;;;;5039304;28;20252;-81
2021/09/19 09:45:48;;;;;;;15.27;13.77;;;19.40;76.70;;;;;;5054443;28;20155;-83
2021/09/19 09:48:31;;;;;;;16.13;13.80;;;19.50;74.60;;;;;;5057568;28;20206;-83
2021/09/19 09:51:00;;;;;;;16.57;14.83;;;19.60;74.00;;;;;;5056464;28;20210;-85
2021/09/19 09:53:26;;;;;;;15.83;14.17;;;19.90;72.20;;;;;;5045633;28;20262;-83
2021/09/19 09:55:53;;;;;;;15.13;13.73;;;19.90;68.80;;;;;;5053958;28;20659;-85
2021/09/19 09:58:26;;;;;;;16.17;14.57;;;20.00;68.90;;;;;;5042484;28;20178;-86
2021/09/19 10:00:58;;;;;;;16.03;14.27;;;20.00;69.00;;;;;;5038757;28;20655;-87
2021/09/19 10:03:27;;;;;;;15.83;14.13;;;20.00;68.80;;;;;;5039856;28;20184;-84
2021/09/19 10:05:58;;;;;;;16.30;14.67;;;20.20;67.70;;;;;;5038378;28;20184;-86
2021/09/19 10:08:24;;;;;;;15.40;13.80;;;20.30;68.40;;;;;;5036192;28;20177;-83
2021/09/19 10:10:50;;;;;;;14.97;13.37;;;20.40;65.50;;;;;;5036688;28;20671;-84
2021/09/19 10:13:16;;;;;;;15.07;13.43;;;20.60;64.80;;;;;;5037456;28;20243;-85
2021/09/19 10:15:43;;;;;;;14.33;12.87;;;20.50;63.60;;;;;;5037418;28;20180;-83
2021/09/19 10:18:16;;;;;;;14.53;13.13;;;20.60;64.20;;;;;;5037659;28;20575;-86
2021/09/19 10:20:45;;;;;;;13.30;11.90;;;20.80;64.00;;;;;;5036012;28;20182;-85
2021/09/19 10:23:33;;;;;;;13.27;11.20;;;20.70;59.80;;;;;;5038661;28;20164;-86
2021/09/19 10:26:09;;;;;;;12.97;11.50;;;20.80;59.70;;;;;;5038492;28;20170;-85
2021/09/19 10:28:42;;;;;;;12.87;10.63;;;20.90;58.80;;;;;;5036765;28;20169;-85
2021/09/19 10:31:20;;;;;;;13.90;10.47;;;21.10;60.40;;;;;;5035482;28;20218;-84
2021/09/19 10:33:50;;;;;;;11.67;10.40;;;21.20;56.40;;;;;;5036329;28;20172;-84
2021/09/19 10:36:34;;;;;;;11.90;10.30;;;21.50;52.10;;;;;;5036752;28;20184;-85
2021/09/19 10:39:18;;;;;;;11.07;9.97;;;21.50;51.40;;;;;;5037637;28;20179;-86
2021/09/19 10:42:19;;;;;;;11.13;8.57;;;21.40;48.30;;;;;;5034064;28;20641;-85
2021/09/19 10:44:44;;;;;;;11.53;10.43;;;21.60;46.70;;;;;;5038764;28;20511;-84
2021/09/19 10:47:11;;;;;;;11.40;10.30;;;21.80;47.10;;;;;;5043006;28;20196;-84
2021/09/19 10:49:39;;;;;;;10.53;9.53;;;21.70;47.00;;;;;;5039064;28;20295;-86
2021/09/19 10:52:06;;;;;;;10.83;8.97;;;21.60;46.90;;;;;;5037203;28;20208;-84
2021/09/19 10:54:51;;;;;;;9.93;8.93;;;21.50;48.20;;;;;;5036284;28;20189;-84
2021/09/19 10:57:22;;;;;;;11.90;10.63;;;21.70;47.70;;;;;;5039122;28;20165;-83
2021/09/19 11:00:16;;;;;;;10.87;9.67;;;21.60;48.60;;;;;;5038833;28;20181;-85
2021/09/19 11:02:59;;;;;;;11.20;10.10;;;21.50;50.20;;;;;;5041676;28;20193;-83
2021/09/19 11:05:29;;;;;;;9.83;8.83;;;21.50;46.50;;;;;;5039846;28;20514;-86
2021/09/19 11:08:07;;;;;;;10.47;9.37;;;21.80;44.80;;;;;;5039716;28;20184;-86
2021/09/19 11:10:48;;;;;;;11.20;9.67;;;22.00;26.80;;;;;;5041630;28;20296;-85
2021/09/19 11:13:31;;;;;;;10.47;9.53;;;22.20;26.50;;;;;;5043172;28;20200;-85
2021/09/19 11:16:25;;;;;;;11.33;9.80;;;22.30;26.70;;;;;;5043965;28;20231;-84
2021/09/19 11:18:59;;;;;;;10.73;9.60;;;22.10;22.20;;;;;;5040505;28;20197;-84
2021/09/19 11:21:25;;;;;;;11.23;10.03;;;21.90;26.10;;;;;;5046684;28;20183;-84
2021/09/19 11:24:12;;;;;;;11.77;9.63;;;21.80;28.80;;;;;;5052482;28;20186;-84
2021/09/19 11:26:54;;;;;;;11.10;10.00;;;22.10;24.80;;;;;;5053597;28;20177;-84
2021/09/19 11:29:24;;;;;;;11.03;9.70;;;21.90;26.60;;;;;;5042468;28;20233;-85
2021/09/19 11:31:51;;;;;;;10.70;9.60;;;21.90;29.00;;;;;;5041367;28;20240;-85
2021/09/19 11:34:22;;;;;;;12.30;9.47;;;21.90;30.70;;;;;;5041092;28;20172;-85
2021/09/19 11:36:52;;;;;;;11.53;10.43;;;21.80;25.40;;;;;;5039271;28;20536;-84
2021/09/19 11:39:18;;;;;;;10.70;9.63;;;21.70;22.50;;;;;;5037920;28;20197;-86
2021/09/19 11:41:47;;;;;;;10.37;9.27;;;21.80;23.10;;;;;;5038604;28;20176;-84
2021/09/19 11:44:16;;;;;;;9.93;8.97;;;21.90;19.00;;;;;;5038582;28;20197;-85
2021/09/19 11:46:44;;;;;;;10.33;9.23;;;22.00;18.20;;;;;;5041186;28;20175;-84
2021/09/19 11:49:10;;;;;;;11.43;9.87;;;22.10;13.20;;;;;;5047052;28;20187;-84
2021/09/19 11:51:37;;;;;;;11.47;9.90;;;22.20;12.10;;;;;;5041295;28;20292;-85
2021/09/19 11:54:03;;;;;;;10.03;8.70;;;22.10;10.90;;;;;;5024813;28;20174;-85
2021/09/19 11:56:30;;;;;;;10.10;9.00;;;22.10;12.00;;;;;;5041708;28;20227;-83
2021/09/19 11:58:58;;;;;;;11.80;8.87;;;21.90;14.00;;;;;;5048416;28;20184;-85
2021/09/19 12:01:27;;;;;;;10.17;8.80;;;22.20;11.00;;;;;;5047837;28;20166;-86
2021/09/19 12:04:07;;;;;;;10.17;8.30;;;22.30;7.10;;;;;;5027076;28;20206;-86
2021/09/19 12:06:34;;;;;;;9.87;8.87;;;22.30;7.20;;;;;;5048127;28;20247;-84
2021/09/19 12:09:00;;;;;;;13.10;11.70;;;22.20;1.00;;;;;;5052386;28;20171;-84
2021/09/19 12:11:49;;;;;;;9.77;8.77;;;22.20;1.00;;;;;;5054597;28;20303;-82
2021/09/19 12:14:26;;;;;;;11.70;7.77;;;22.00;1.00;;;;;;5050260;28;20180;-85
2021/09/19 12:17:11;;;;;;;12.17;8.30;;;22.00;3.00;;;;;;5045091;28;20170;-85
2021/09/19 12:19:40;;;;;;;9.00;8.10;;;22.10;1.00;;;;;;5045527;28;20240;-86
2021/09/19 12:22:14;;;;;;;9.07;7.77;;;22.20;1.00;;;;;;5043791;28;20190;-84
2021/09/19 12:24:40;;;;;;;11.03;7.67;;;22.30;1.00;;;;;;5041163;28;20239;-84
2021/09/19 12:27:24;;;;;;;8.80;7.27;;;22.40;1.00;;;;;;5040899;28;20179;-84
2021/09/19 12:30:33;;;;;;;9.07;7.60;;;22.50;1.00;;;;;;5045469;28;20174;-86
2021/09/19 12:33:04;;;;;;;10.07;8.50;;;22.50;1.00;;;;;;5046441;28;20180;-85
2021/09/19 12:35:31;;;;;;;8.37;7.30;;;22.30;1.00;;;;;;5028652;28;20266;-84